createdAt,value
2022-11-09T00:00:49.015Z,2.73
2022-11-09T00:03:16.049Z,2.73
2022-11-09T00:05:42.833Z,2.69
2022-11-09T00:08:10.784Z,2.71
2022-11-09T00:10:38.382Z,2.74
2022-11-09T00:13:05.557Z,2.75
2022-11-09T00:15:32.103Z,2.72
2022-11-09T00:18:02.151Z,2.76
2022-11-09T00:20:28.936Z,2.76
2022-11-09T00:22:55.513Z,2.77
2022-11-09T00:25:22.048Z,2.75
2022-11-09T00:27:48.647Z,2.71
2022-11-09T00:30:15.431Z,2.72
2022-11-09T00:32:42.035Z,2.76
2022-11-09T00:35:09.001Z,2.72
2022-11-09T00:37:35.607Z,2.56
2022-11-09T00:40:02.333Z,2.51
2022-11-09T00:42:28.910Z,2.62
2022-11-09T00:44:55.450Z,2.63
2022-11-09T00:47:22.022Z,2.56
2022-11-09T00:49:48.685Z,2.54
2022-11-09T00:52:15.221Z,2.53
2022-11-09T00:54:41.791Z,2.58
2022-11-09T00:57:08.381Z,2.52
2022-11-09T00:59:34.926Z,2.48
2022-11-09T01:02:01.451Z,2.48
2022-11-09T01:04:28.063Z,2.49
2022-11-09T01:06:54.661Z,2.48
2022-11-09T01:09:21.286Z,2.45
2022-11-09T01:11:47.951Z,2.45
2022-11-09T01:14:14.499Z,2.45
2022-11-09T01:16:41.053Z,2.43
2022-11-09T01:19:07.715Z,2.43
2022-11-09T01:21:34.246Z,2.43
2022-11-09T01:24:01.746Z,2.44
2022-11-09T01:26:28.512Z,2.46
2022-11-09T01:28:55.090Z,2.43
2022-11-09T01:31:22.220Z,2.42
2022-11-09T01:33:49.141Z,2.37
2022-11-09T01:36:19.559Z,2.37
2022-11-09T01:38:46.738Z,2.44
2022-11-09T01:41:19.469Z,2.43
2022-11-09T01:44:13.292Z,2.35
2022-11-09T01:47:02.122Z,2.35
2022-11-09T01:49:28.622Z,2.37
2022-11-09T01:52:11.574Z,2.37
2022-11-09T01:54:48.411Z,2.40
2022-11-09T01:57:38.369Z,2.35
2022-11-09T02:00:11.578Z,2.33
2022-11-09T02:02:40.969Z,2.28
2022-11-09T02:05:11.356Z,2.29
2022-11-09T02:07:40.034Z,2.24
2022-11-09T02:10:29.685Z,2.23
2022-11-09T02:12:58.817Z,2.26
2022-11-09T02:15:26.424Z,2.29
2022-11-09T02:17:54.611Z,2.25
2022-11-09T02:20:22.489Z,2.27
2022-11-09T02:22:49.244Z,2.24
2022-11-09T02:25:16.476Z,2.20
2022-11-09T02:27:44.662Z,2.18
2022-11-09T02:30:12.554Z,2.19
2022-11-09T02:32:39.262Z,2.14
2022-11-09T02:35:06.014Z,2.12
2022-11-09T02:37:48.939Z,2.10
2022-11-09T02:40:24.231Z,2.05
2022-11-09T02:42:51.204Z,2.04
2022-11-09T02:45:18.352Z,2.01
2022-11-09T02:47:44.883Z,2.04
2022-11-09T02:50:11.471Z,2.04
2022-11-09T02:52:38.037Z,2.07
2022-11-09T02:55:04.905Z,2.09
2022-11-09T02:57:31.504Z,2.16
2022-11-09T02:59:58.033Z,2.09
2022-11-09T03:02:24.644Z,2.13
2022-11-09T03:04:51.231Z,2.11
2022-11-09T03:07:18.742Z,2.10
2022-11-09T03:09:46.185Z,2.13
2022-11-09T03:12:31.112Z,2.12
2022-11-09T03:14:59.898Z,2.17
2022-11-09T03:17:27.338Z,2.19
2022-11-09T03:19:54.826Z,2.14
2022-11-09T03:22:21.901Z,2.16
2022-11-09T03:24:48.910Z,2.19
2022-11-09T03:27:15.754Z,2.22
2022-11-09T03:29:42.309Z,2.29
2022-11-09T03:32:09.495Z,2.27
2022-11-09T03:34:36.145Z,2.26
2022-11-09T03:37:02.776Z,2.20
2022-11-09T03:39:29.357Z,2.21
2022-11-09T03:41:55.956Z,2.25
2022-11-09T03:44:22.562Z,2.29
2022-11-09T03:46:49.132Z,2.31
2022-11-09T03:49:15.753Z,2.34
2022-11-09T03:51:42.324Z,2.32
2022-11-09T03:54:08.876Z,2.34
2022-11-09T03:56:35.448Z,2.33
2022-11-09T03:59:02.000Z,2.36
2022-11-09T04:01:28.676Z,2.38
2022-11-09T04:03:55.329Z,2.39
2022-11-09T04:06:21.860Z,2.40
2022-11-09T04:08:51.383Z,2.44
2022-11-09T04:11:18.380Z,2.50
2022-11-09T04:13:44.950Z,2.47
2022-11-09T04:16:12.377Z,2.45
2022-11-09T04:18:38.962Z,2.43
2022-11-09T04:21:05.659Z,2.45
2022-11-09T04:23:32.231Z,2.49
2022-11-09T04:25:59.801Z,2.43
2022-11-09T04:28:26.789Z,2.34
2022-11-09T04:30:53.355Z,2.38
2022-11-09T04:33:20.397Z,2.40
2022-11-09T04:35:47.290Z,2.38
2022-11-09T04:38:14.673Z,2.36
2022-11-09T04:40:41.853Z,2.38
2022-11-09T04:43:12.516Z,2.32
2022-11-09T04:45:39.187Z,2.30
2022-11-09T04:48:07.321Z,2.30
2022-11-09T04:50:34.735Z,2.29
2022-11-09T04:53:09.427Z,2.26
2022-11-09T04:55:36.348Z,2.20
2022-11-09T04:58:03.382Z,2.22
2022-11-09T05:00:30.183Z,2.26
2022-11-09T05:03:01.104Z,2.21
2022-11-09T05:05:29.041Z,2.18
2022-11-09T05:07:56.364Z,2.17
2022-11-09T05:10:22.916Z,2.20
2022-11-09T05:12:49.708Z,2.24
2022-11-09T05:15:16.327Z,2.26
2022-11-09T05:17:42.889Z,2.25
2022-11-09T05:20:10.082Z,2.33
2022-11-09T05:22:58.873Z,2.30
2022-11-09T05:25:25.609Z,2.35
2022-11-09T05:27:53.167Z,2.40
2022-11-09T05:30:20.537Z,2.48
2022-11-09T05:32:47.608Z,2.44
2022-11-09T05:35:14.328Z,2.53
2022-11-09T05:37:41.234Z,2.57
2022-11-09T05:40:09.386Z,2.63
2022-11-09T05:42:39.823Z,2.63
2022-11-09T05:45:40.306Z,2.73
2022-11-09T05:47:54.948Z,2.78
2022-11-09T05:50:21.592Z,2.91
2022-11-09T05:52:48.157Z,2.99
2022-11-09T05:55:14.796Z,3.08
2022-11-09T05:57:41.380Z,3.10
2022-11-09T06:00:10.929Z,3.22
2022-11-09T06:02:37.823Z,3.29
2022-11-09T06:05:04.625Z,3.40
2022-11-09T06:07:32.233Z,3.41
2022-11-09T06:09:58.782Z,3.49
2022-11-09T06:12:25.351Z,3.52
2022-11-09T06:14:51.900Z,3.57
2022-11-09T06:17:18.579Z,3.62
2022-11-09T06:19:45.172Z,3.68
2022-11-09T06:22:12.453Z,3.74
2022-11-09T06:24:39.392Z,3.81
2022-11-09T06:27:06.322Z,3.91
2022-11-09T06:29:33.573Z,3.97
2022-11-09T06:32:00.235Z,4.00
2022-11-09T06:34:26.933Z,4.10
2022-11-09T06:36:54.000Z,4.13
2022-11-09T06:39:20.527Z,4.21
2022-11-09T06:41:47.707Z,4.26
2022-11-09T06:44:15.263Z,4.32
2022-11-09T06:46:41.882Z,4.39
2022-11-09T06:49:08.508Z,4.55
2022-11-09T06:51:35.239Z,4.57
2022-11-09T06:54:02.004Z,4.70
2022-11-09T06:56:28.592Z,4.71
2022-11-09T06:58:55.139Z,4.79
2022-11-09T07:01:27.292Z,4.87
2022-11-09T07:03:54.016Z,4.99
2022-11-09T07:06:20.856Z,5.00
2022-11-09T07:08:47.406Z,5.07
2022-11-09T07:11:19.683Z,5.13
2022-11-09T07:13:53.408Z,5.17
2022-11-09T07:16:22.877Z,5.24
2022-11-09T07:18:49.413Z,5.31
2022-11-09T07:21:15.966Z,5.34
2022-11-09T07:23:43.393Z,5.44
2022-11-09T07:26:10.090Z,5.53
2022-11-09T07:28:36.647Z,5.55
2022-11-09T07:31:03.496Z,5.65
2022-11-09T07:33:30.575Z,5.70
2022-11-09T07:36:01.464Z,5.81
2022-11-09T07:38:32.141Z,5.94
2022-11-09T07:41:02.958Z,6.04
2022-11-09T07:43:29.935Z,6.07
2022-11-09T07:45:56.976Z,6.24
2022-11-09T07:48:24.104Z,6.36
2022-11-09T07:50:50.648Z,6.45
2022-11-09T07:53:18.117Z,6.53
2022-11-09T07:55:44.874Z,6.63
2022-11-09T07:58:15.195Z,6.71
2022-11-09T08:00:43.052Z,6.79
2022-11-09T08:03:10.257Z,6.84
2022-11-09T08:05:37.557Z,6.91
2022-11-09T08:08:07.122Z,6.99
2022-11-09T08:10:35.446Z,7.17
2022-11-09T08:13:04.856Z,7.25
2022-11-09T08:15:32.181Z,7.34
2022-11-09T08:18:03.032Z,7.46
2022-11-09T08:20:30.458Z,7.53
2022-11-09T08:23:02.356Z,7.68
2022-11-09T08:25:31.038Z,7.82
2022-11-09T08:27:57.758Z,7.90
2022-11-09T08:30:25.083Z,7.97
2022-11-09T08:32:51.862Z,8.08
2022-11-09T08:35:21.129Z,8.14
2022-11-09T08:37:49.569Z,8.28
2022-11-09T08:40:20.757Z,8.37
2022-11-09T08:42:47.747Z,8.49
2022-11-09T08:45:15.031Z,8.61
2022-11-09T08:47:42.163Z,8.74
2022-11-09T08:50:10.401Z,8.83
2022-11-09T08:52:37.283Z,8.96
2022-11-09T08:55:04.339Z,9.06
2022-11-09T08:57:31.649Z,9.13
2022-11-09T08:59:58.456Z,9.25
2022-11-09T09:02:25.026Z,9.28
2022-11-09T09:04:51.783Z,9.32
2022-11-09T09:07:18.468Z,9.41
2022-11-09T09:09:45.235Z,9.41
2022-11-09T09:12:11.827Z,9.48
2022-11-09T09:14:38.412Z,9.56
2022-11-09T09:17:04.994Z,9.67
2022-11-09T09:19:32.106Z,9.78
2022-11-09T09:21:59.345Z,9.85
2022-11-09T09:24:26.851Z,9.88
2022-11-09T09:26:53.453Z,9.96
2022-11-09T09:29:19.999Z,10.06
2022-11-09T09:31:46.560Z,10.16
2022-11-09T09:34:13.964Z,10.19
2022-11-09T09:36:46.286Z,10.33
2022-11-09T09:39:14.549Z,10.52
2022-11-09T09:41:56.884Z,10.60
2022-11-09T09:44:26.263Z,10.71
2022-11-09T09:47:13.555Z,10.77
2022-11-09T09:50:06.166Z,10.91
2022-11-09T09:52:59.337Z,11.07
2022-11-09T09:55:38.573Z,11.16
2022-11-09T09:58:12.328Z,11.19
2022-11-09T10:00:41.445Z,11.28
2022-11-09T10:03:17.703Z,11.28
2022-11-09T10:05:49.940Z,11.42
2022-11-09T10:08:21.244Z,11.58
2022-11-09T10:11:00.078Z,11.65
2022-11-09T10:13:36.178Z,11.78
2022-11-09T10:16:26.588Z,11.90
2022-11-09T10:19:28.789Z,11.99
2022-11-09T10:22:05.690Z,12.18
2022-11-09T10:24:32.238Z,12.21
2022-11-09T10:27:00.673Z,12.18
2022-11-09T10:29:57.110Z,12.30
2022-11-09T10:32:24.667Z,12.48
2022-11-09T10:35:00.621Z,12.57
2022-11-09T10:37:37.752Z,12.74
2022-11-09T10:40:19.003Z,12.97
2022-11-09T10:42:50.920Z,13.18
2022-11-09T10:45:31.586Z,13.31
2022-11-09T10:47:59.133Z,13.59
2022-11-09T10:50:48.968Z,13.77
2022-11-09T10:53:19.845Z,14.00
2022-11-09T10:56:19.951Z,14.53
2022-11-09T10:58:52.620Z,15.51
2022-11-09T11:01:24.114Z,17.83
2022-11-09T11:03:53.044Z,21.27
2022-11-09T11:06:28.486Z,24.84
2022-11-09T11:08:58.049Z,27.92
2022-11-09T11:11:34.947Z,30.33
2022-11-09T11:14:31.784Z,30.89
2022-11-09T11:16:59.061Z,30.65
2022-11-09T11:19:33.569Z,31.15
2022-11-09T11:22:19.392Z,31.88
2022-11-09T11:24:59.190Z,33.96
2022-11-09T11:27:40.748Z,34.64
2022-11-09T11:30:10.861Z,35.13
2022-11-09T11:32:37.741Z,34.69
2022-11-09T11:35:17.232Z,34.44
2022-11-09T11:38:02.399Z,35.15
2022-11-09T11:40:46.399Z,36.78
2022-11-09T11:43:12.950Z,35.43
2022-11-09T11:45:43.148Z,36.52
2022-11-09T11:48:28.560Z,36.12
2022-11-09T11:51:03.066Z,35.56
2022-11-09T11:53:43.488Z,35.31
2022-11-09T11:56:22.430Z,34.92
2022-11-09T11:59:07.357Z,34.10
2022-11-09T12:01:52.335Z,33.64
2022-11-09T12:04:43.337Z,33.06
2022-11-09T12:08:04.188Z,31.20
2022-11-09T12:10:59.982Z,28.66
2022-11-09T12:13:49.481Z,29.02
2022-11-09T12:16:40.405Z,28.34
2022-11-09T12:19:43.488Z,26.88
2022-11-09T12:22:23.031Z,25.20
2022-11-09T12:25:17.402Z,22.85
2022-11-09T12:27:53.012Z,22.20
2022-11-09T12:30:22.329Z,21.63
2022-11-09T12:33:03.621Z,20.92
2022-11-09T12:35:51.459Z,20.51
2022-11-09T12:38:27.633Z,20.28
2022-11-09T12:41:05.216Z,20.13
2022-11-09T12:43:53.601Z,20.15
2022-11-09T12:46:26.516Z,20.46
2022-11-09T12:48:56.019Z,21.14
2022-11-09T12:51:22.987Z,20.73
2022-11-09T12:53:49.534Z,20.88
2022-11-09T12:56:25.792Z,21.29
2022-11-09T12:58:52.340Z,21.18
2022-11-09T13:01:33.963Z,20.63
2022-11-09T13:04:03.475Z,20.26
2022-11-09T13:06:32.660Z,20.75
2022-11-09T13:09:23.871Z,21.06
2022-11-09T13:11:52.699Z,22.48
2022-11-09T13:14:22.208Z,23.92
2022-11-09T13:16:49.823Z,24.78
2022-11-09T13:19:34.650Z,25.83
2022-11-09T13:22:21.104Z,26.31
2022-11-09T13:24:51.993Z,26.37
2022-11-09T13:27:37.645Z,26.48
2022-11-09T13:30:24.670Z,26.87
2022-11-09T13:33:06.549Z,26.53
2022-11-09T13:35:41.948Z,25.98
2022-11-09T13:38:21.103Z,25.55
2022-11-09T13:40:54.009Z,25.59
2022-11-09T13:43:22.709Z,24.95
2022-11-09T13:46:02.865Z,24.08
2022-11-09T13:48:55.642Z,23.53
2022-11-09T13:51:26.918Z,22.24
2022-11-09T13:54:04.073Z,20.71
2022-11-09T13:56:31.967Z,19.07
2022-11-09T13:59:28.000Z,17.46
2022-11-09T14:02:00.026Z,16.38
2022-11-09T14:04:31.637Z,15.75
2022-11-09T14:07:06.805Z,15.21
2022-11-09T14:09:42.581Z,14.54
2022-11-09T14:12:22.000Z,14.22
2022-11-09T14:15:07.053Z,13.77
2022-11-09T14:17:54.967Z,13.39
2022-11-09T14:20:33.517Z,13.15
2022-11-09T14:23:00.713Z,12.90
2022-11-09T14:25:36.514Z,12.74
2022-11-09T14:28:02.975Z,12.37
2022-11-09T14:30:31.680Z,12.29
2022-11-09T14:32:59.217Z,12.07
2022-11-09T14:35:36.550Z,11.89
2022-11-09T14:38:17.385Z,11.73
2022-11-09T14:40:46.644Z,11.57
2022-11-09T14:43:40.914Z,11.29
2022-11-09T14:46:19.179Z,11.07
2022-11-09T14:48:54.111Z,10.97
2022-11-09T14:51:22.018Z,10.76
2022-11-09T14:53:50.351Z,10.59
2022-11-09T14:56:20.579Z,10.44
2022-11-09T14:58:49.949Z,10.38
2022-11-09T15:01:24.167Z,10.20
2022-11-09T15:04:11.843Z,10.13
2022-11-09T15:06:51.311Z,10.07
2022-11-09T15:09:43.682Z,9.98
2022-11-09T15:12:15.273Z,9.88
2022-11-09T15:14:42.574Z,9.77
2022-11-09T15:17:36.126Z,9.70
2022-11-09T15:20:02.618Z,9.58
2022-11-09T15:22:44.735Z,9.53
2022-11-09T15:25:25.525Z,9.55
2022-11-09T15:28:00.237Z,9.47
2022-11-09T15:30:45.623Z,9.37
2022-11-09T15:33:24.215Z,9.33
2022-11-09T15:35:59.948Z,9.22
2022-11-09T15:38:44.117Z,9.16
2022-11-09T15:41:16.377Z,9.11
2022-11-09T15:43:44.108Z,9.02
2022-11-09T15:46:16.595Z,8.97
2022-11-09T15:48:46.336Z,8.93
2022-11-09T15:51:14.516Z,8.98
2022-11-09T15:53:41.400Z,8.82
2022-11-09T15:56:16.007Z,8.79
2022-11-09T15:58:42.830Z,8.80
2022-11-09T16:01:10.969Z,8.72
2022-11-09T16:03:37.563Z,8.69
2022-11-09T16:06:04.383Z,8.64
2022-11-09T16:08:30.936Z,8.64
2022-11-09T16:10:57.491Z,8.57
2022-11-09T16:13:24.165Z,8.45
2022-11-09T16:15:50.710Z,8.43
2022-11-09T16:18:22.905Z,8.38
2022-11-09T16:20:52.213Z,8.31
2022-11-09T16:23:18.809Z,8.28
2022-11-09T16:25:45.386Z,8.26
2022-11-09T16:28:11.985Z,8.22
2022-11-09T16:30:42.778Z,8.19
2022-11-09T16:33:12.245Z,8.10
2022-11-09T16:35:38.789Z,8.06
2022-11-09T16:38:05.407Z,7.95
2022-11-09T16:40:32.390Z,7.90
2022-11-09T16:43:00.404Z,7.88
2022-11-09T16:45:32.105Z,7.90
2022-11-09T16:48:02.324Z,7.85
2022-11-09T16:50:28.871Z,7.84
2022-11-09T16:52:55.490Z,7.74
2022-11-09T16:55:22.126Z,7.73
2022-11-09T16:57:48.684Z,7.71
2022-11-09T17:00:15.851Z,7.71
2022-11-09T17:02:42.454Z,7.66
2022-11-09T17:05:09.142Z,7.66
2022-11-09T17:07:42.132Z,7.59
2022-11-09T17:10:10.560Z,7.54
2022-11-09T17:12:37.432Z,7.47
2022-11-09T17:15:04.273Z,7.46
2022-11-09T17:17:30.898Z,7.41
2022-11-09T17:19:57.724Z,7.40
2022-11-09T17:22:24.300Z,7.39
2022-11-09T17:24:50.881Z,7.36
2022-11-09T17:27:17.438Z,7.31
2022-11-09T17:29:43.981Z,7.30
2022-11-09T17:32:11.022Z,7.33
2022-11-09T17:34:37.612Z,7.30
2022-11-09T17:37:05.620Z,7.24
2022-11-09T17:39:33.092Z,7.29
2022-11-09T17:41:59.823Z,7.23
2022-11-09T17:44:26.440Z,7.12
2022-11-09T17:46:53.081Z,7.16
2022-11-09T17:49:19.650Z,7.15
2022-11-09T17:51:46.203Z,7.14
2022-11-09T17:54:14.692Z,7.12
2022-11-09T17:56:41.383Z,7.11
2022-11-09T17:59:08.005Z,7.01
2022-11-09T18:01:41.068Z,7.01
2022-11-09T18:04:10.163Z,6.97
2022-11-09T18:06:37.754Z,6.97
2022-11-09T18:09:39.109Z,6.90
2022-11-09T18:11:51.471Z,6.88
2022-11-09T18:14:18.157Z,6.88
2022-11-09T18:16:45.268Z,6.83
2022-11-09T18:19:12.270Z,6.79
2022-11-09T18:21:38.876Z,6.77
2022-11-09T18:24:05.753Z,6.76
2022-11-09T18:26:32.883Z,6.76
2022-11-09T18:29:00.261Z,6.73
2022-11-09T18:31:27.121Z,6.65
2022-11-09T18:33:53.694Z,6.63
2022-11-09T18:36:23.550Z,6.60
2022-11-09T18:38:53.290Z,6.56
2022-11-09T18:41:22.105Z,6.52
2022-11-09T18:43:50.418Z,6.49
2022-11-09T18:46:19.006Z,6.51
2022-11-09T18:48:45.855Z,6.48
2022-11-09T18:51:12.519Z,6.52
2022-11-09T18:53:42.266Z,6.47
2022-11-09T18:56:18.541Z,6.50
2022-11-09T18:58:46.232Z,6.49
2022-11-09T19:01:13.330Z,6.43
2022-11-09T19:03:39.903Z,6.41
2022-11-09T19:06:08.686Z,6.32
2022-11-09T19:08:53.880Z,6.37
2022-11-09T19:11:20.512Z,6.32
2022-11-09T19:13:47.073Z,6.29
2022-11-09T19:16:15.005Z,6.25
2022-11-09T19:18:42.074Z,6.20
2022-11-09T19:21:40.193Z,6.25
2022-11-09T19:24:08.558Z,6.23
2022-11-09T19:26:35.293Z,6.25
2022-11-09T19:29:01.897Z,6.27
2022-11-09T19:31:28.834Z,6.21
2022-11-09T19:33:55.581Z,6.22
2022-11-09T19:36:30.744Z,6.23
2022-11-09T19:38:58.257Z,6.22
2022-11-09T19:41:25.542Z,6.17
2022-11-09T19:43:58.661Z,6.16
2022-11-09T19:46:26.815Z,6.15
2022-11-09T19:48:53.895Z,6.17
2022-11-09T19:51:20.577Z,6.20
2022-11-09T19:53:56.633Z,6.19
2022-11-09T19:56:24.247Z,6.19
2022-11-09T19:58:58.729Z,6.20
2022-11-09T20:01:25.947Z,6.14
2022-11-09T20:03:55.240Z,6.07
2022-11-09T20:06:23.507Z,6.05
2022-11-09T20:08:51.327Z,6.02
2022-11-09T20:11:39.503Z,5.98
2022-11-09T20:14:07.437Z,6.00
2022-11-09T20:16:35.459Z,6.01
2022-11-09T20:19:03.589Z,6.04
2022-11-09T20:21:30.376Z,6.07
2022-11-09T20:23:57.170Z,6.04
2022-11-09T20:26:23.880Z,6.03
2022-11-09T20:28:53.404Z,6.05
2022-11-09T20:31:21.246Z,5.99
2022-11-09T20:33:48.539Z,5.96
2022-11-09T20:36:16.100Z,5.98
2022-11-09T20:38:42.718Z,6.00
2022-11-09T20:41:11.266Z,6.01
2022-11-09T20:43:38.576Z,5.98
2022-11-09T20:46:17.372Z,5.98
2022-11-09T20:48:54.133Z,5.99
2022-11-09T20:51:21.580Z,5.97
2022-11-09T20:53:49.703Z,5.98
2022-11-09T20:56:17.399Z,5.94
2022-11-09T20:58:44.043Z,5.93
2022-11-09T21:01:16.590Z,5.96
2022-11-09T21:03:43.402Z,5.98
2022-11-09T21:06:12.036Z,5.95
2022-11-09T21:08:39.403Z,5.98
2022-11-09T21:11:08.009Z,5.89
2022-11-09T21:13:34.981Z,5.85
2022-11-09T21:16:08.182Z,5.79
2022-11-09T21:18:34.902Z,5.82
2022-11-09T21:21:19.771Z,5.80
2022-11-09T21:24:04.939Z,5.83
2022-11-09T21:26:50.738Z,5.79
2022-11-09T21:29:39.692Z,5.82
2022-11-09T21:32:07.153Z,5.77
2022-11-09T21:34:37.187Z,5.75
2022-11-09T21:37:05.369Z,5.73
2022-11-09T21:39:32.747Z,5.76
2022-11-09T21:41:59.998Z,5.74
2022-11-09T21:44:29.049Z,5.76
2022-11-09T21:46:55.706Z,5.75
2022-11-09T21:49:22.345Z,5.75
2022-11-09T21:51:49.018Z,5.73
2022-11-09T21:54:15.870Z,5.76
2022-11-09T21:56:42.768Z,5.71
2022-11-09T21:59:10.465Z,5.68
2022-11-09T22:01:37.122Z,5.67
2022-11-09T22:04:03.725Z,5.61
2022-11-09T22:06:30.576Z,5.60
2022-11-09T22:08:57.349Z,5.60
2022-11-09T22:11:44.215Z,5.61
2022-11-09T22:14:34.330Z,5.61
2022-11-09T22:17:01.665Z,5.57
2022-11-09T22:19:47.135Z,5.56
2022-11-09T22:22:14.592Z,5.49
2022-11-09T22:24:41.206Z,5.48
2022-11-09T22:27:08.236Z,5.50
2022-11-09T22:29:34.779Z,5.53
2022-11-09T22:32:01.499Z,5.54
2022-11-09T22:34:28.159Z,5.55
2022-11-09T22:36:54.709Z,5.53
2022-11-09T22:39:21.340Z,5.55
2022-11-09T22:41:47.920Z,5.55
2022-11-09T22:44:14.835Z,5.47
2022-11-09T22:46:41.373Z,5.51
2022-11-09T22:49:08.530Z,5.49
2022-11-09T22:51:35.178Z,5.50
2022-11-09T22:54:01.782Z,5.45
2022-11-09T22:56:28.342Z,5.40
2022-11-09T22:58:54.898Z,5.42
2022-11-09T23:01:21.753Z,5.37
2022-11-09T23:03:48.359Z,5.38
2022-11-09T23:06:19.226Z,5.38
2022-11-09T23:08:46.282Z,5.39
2022-11-09T23:11:15.970Z,5.30
2022-11-09T23:13:43.610Z,5.31
2022-11-09T23:16:11.775Z,5.29
2022-11-09T23:18:53.813Z,5.31
2022-11-09T23:21:26.480Z,5.28
2022-11-09T23:23:54.908Z,5.32
2022-11-09T23:26:22.668Z,5.28
2022-11-09T23:28:49.380Z,5.29
2022-11-09T23:31:19.459Z,5.30
2022-11-09T23:33:47.948Z,5.29
2022-11-09T23:36:14.572Z,5.26
2022-11-09T23:38:41.180Z,5.28
2022-11-09T23:41:10.421Z,5.25
2022-11-09T23:43:37.597Z,5.26
2022-11-09T23:46:09.846Z,5.21
2022-11-09T23:48:36.904Z,5.22
2022-11-09T23:51:04.995Z,5.21
2022-11-09T23:53:32.419Z,5.17
2022-11-09T23:56:08.363Z,5.16
2022-11-09T23:58:34.971Z,5.15
